Time;durP1;ratioP1;P1;durP2;ratioP2;P2;SDS_P1;SDS_P2;PMS_P1;PMS_P2;Temp;Humidity;BMP_temperature;BMP_pressure;BME280_temperature;BME280_humidity;BME280_pressure;Samples;Min_cycle;Max_cycle;Signal;HPM_P1;HPM_P2
2022/05/01 00:02:13;;;;;;;12.63;10.27;;;7.50;99.90;;;;;;5053949;28;20044;-76
2022/05/01 00:04:39;;;;;;;12.85;10.30;;;7.50;99.90;;;;;;5051873;28;20040;-76
2022/05/01 00:07:05;;;;;;;12.38;11.07;;;7.50;99.90;;;;;;5050812;28;20044;-76
2022/05/01 00:09:30;;;;;;;15.15;11.30;;;7.40;99.90;;;;;;5052790;28;20040;-76
2022/05/01 00:11:56;;;;;;;14.65;10.95;;;7.40;99.90;;;;;;5063043;28;20036;-75
2022/05/01 00:14:24;;;;;;;14.25;11.00;;;7.40;99.90;;;;;;5049264;28;20117;-75
2022/05/01 00:16:50;;;;;;;13.18;10.43;;;7.40;99.90;;;;;;5052202;28;20166;-75
2022/05/01 00:19:16;;;;;;;12.73;10.57;;;7.40;99.90;;;;;;5053709;28;20127;-75
2022/05/01 00:21:41;;;;;;;12.88;10.43;;;7.40;99.90;;;;;;5053599;28;20124;-75
2022/05/01 00:24:08;;;;;;;12.35;10.82;;;7.40;99.90;;;;;;5050732;28;20047;-75
2022/05/01 00:26:34;;;;;;;15.98;11.48;;;7.40;99.90;;;;;;5047786;28;20593;-75
2022/05/01 00:29:05;;;;;;;12.68;10.70;;;7.40;99.90;;;;;;5053201;28;20033;-76
2022/05/01 00:31:31;;;;;;;15.27;10.80;;;7.40;99.90;;;;;;5071851;28;20112;-75
2022/05/01 00:36:40;;;;;;;11.95;10.38;;;7.30;99.90;;;;;;5060025;28;20055;-76
2022/05/01 00:39:11;;;;;;;14.07;11.02;;;7.40;99.90;;;;;;5053487;28;20036;-74
2022/05/01 00:41:39;;;;;;;14.82;11.15;;;7.30;99.90;;;;;;5065619;28;20045;-75
2022/05/01 00:44:18;;;;;;;13.18;11.30;;;7.40;99.90;;;;;;5053436;28;20116;-76
2022/05/01 00:46:46;;;;;;;13.60;11.10;;;7.30;99.90;;;;;;5052380;28;20044;-76
2022/05/01 00:49:14;;;;;;;15.52;11.65;;;7.20;99.90;;;;;;5050996;28;20083;-75
2022/05/01 00:51:46;;;;;;;12.75;11.02;;;7.30;99.90;;;;;;5047691;28;20041;-75
2022/05/01 00:54:15;;;;;;;13.63;11.45;;;7.30;99.90;;;;;;5053437;28;20043;-75
2022/05/01 00:56:46;;;;;;;14.82;12.02;;;7.30;99.90;;;;;;5059346;28;20044;-75
2022/05/01 00:59:12;;;;;;;15.70;11.13;;;7.20;99.90;;;;;;5052211;28;20040;-75
2022/05/01 01:01:42;;;;;;;14.20;11.15;;;7.20;99.90;;;;;;5069200;28;20090;-76
2022/05/01 01:04:09;;;;;;;12.75;10.70;;;7.20;99.90;;;;;;5069965;28;20101;-75
2022/05/01 01:06:35;;;;;;;14.40;12.48;;;7.20;99.90;;;;;;5048238;28;20067;-75
2022/05/01 01:09:01;;;;;;;13.65;10.95;;;7.20;99.90;;;;;;5052936;28;20060;-75
2022/05/01 01:11:26;;;;;;;15.48;12.63;;;7.20;99.90;;;;;;5045235;28;20040;-76
2022/05/01 01:13:52;;;;;;;16.45;11.95;;;7.30;99.90;;;;;;5069391;28;20051;-76
2022/05/01 01:16:18;;;;;;;16.10;12.27;;;7.30;99.90;;;;;;5051569;28;20143;-75
2022/05/01 01:18:45;;;;;;;14.00;12.25;;;7.20;99.90;;;;;;5055747;28;20127;-75
2022/05/01 01:21:11;;;;;;;14.57;11.88;;;7.20;99.90;;;;;;5055615;28;20399;-76
2022/05/01 01:23:40;;;;;;;15.45;11.85;;;7.20;99.90;;;;;;5057621;28;20481;-76
2022/05/01 01:26:07;;;;;;;14.27;12.77;;;7.20;99.90;;;;;;5051589;28;20068;-76
2022/05/01 01:28:36;;;;;;;15.10;12.63;;;7.20;99.90;;;;;;5069971;28;20388;-75
2022/05/01 01:33:53;;;;;;;16.02;12.52;;;7.20;99.90;;;;;;5071166;28;20561;-75
2022/05/01 01:36:23;;;;;;;15.40;12.23;;;7.20;99.90;;;;;;5066596;28;20048;-75
2022/05/01 01:38:49;;;;;;;16.90;12.68;;;7.20;99.90;;;;;;5055606;28;20513;-75
2022/05/01 01:41:20;;;;;;;18.63;13.45;;;7.30;99.90;;;;;;5049645;28;20072;-76
2022/05/01 01:43:48;;;;;;;17.50;13.23;;;7.20;99.90;;;;;;5055595;28;20043;-75
2022/05/01 01:46:17;;;;;;;20.08;13.02;;;7.20;99.90;;;;;;5052105;28;20135;-75
2022/05/01 01:48:45;;;;;;;16.70;12.73;;;7.10;99.90;;;;;;5070319;28;20136;-75
2022/05/01 01:51:10;;;;;;;16.90;12.73;;;7.20;99.90;;;;;;5056736;28;20414;-75
2022/05/01 01:53:37;;;;;;;16.85;13.45;;;7.20;99.90;;;;;;5056541;28;20047;-75
2022/05/01 01:56:04;;;;;;;15.88;12.40;;;7.20;99.90;;;;;;5064071;28;20130;-74
2022/05/01 01:58:32;;;;;;;16.02;12.60;;;7.30;99.90;;;;;;5052559;28;20491;-75
2022/05/01 02:01:03;;;;;;;14.40;12.85;;;7.30;99.90;;;;;;5053318;28;20049;-75
2022/05/01 02:03:29;;;;;;;14.50;12.55;;;7.40;99.90;;;;;;5036391;28;20439;-75
2022/05/01 02:05:54;;;;;;;16.50;13.82;;;7.30;99.90;;;;;;5036095;28;20044;-75
2022/05/01 02:08:20;;;;;;;15.68;13.07;;;7.30;99.90;;;;;;5066729;28;20664;-76
2022/05/01 02:10:49;;;;;;;17.42;13.73;;;7.20;99.90;;;;;;5054403;28;20033;-75
2022/05/01 02:13:16;;;;;;;16.75;13.15;;;7.30;99.90;;;;;;5056653;28;20040;-75
2022/05/01 02:15:42;;;;;;;16.58;14.05;;;7.30;99.90;;;;;;5055072;28;20037;-75
2022/05/01 02:18:07;;;;;;;16.08;13.07;;;7.30;99.90;;;;;;5058342;28;20040;-75
2022/05/01 02:23:21;;;;;;;18.67;13.80;;;7.20;99.90;;;;;;5070993;28;20040;-76
2022/05/01 02:25:48;;;;;;;17.63;14.05;;;7.20;99.90;;;;;;5051272;28;20487;-76
2022/05/01 02:28:14;;;;;;;18.90;13.95;;;7.20;99.90;;;;;;5054066;28;20395;-75
2022/05/01 02:30:43;;;;;;;17.13;13.88;;;7.20;99.90;;;;;;5072449;28;20086;-76
2022/05/01 02:33:09;;;;;;;15.75;12.77;;;7.20;99.90;;;;;;5055985;28;20045;-75
2022/05/01 02:35:35;;;;;;;15.60;13.93;;;7.10;99.90;;;;;;5055975;28;20036;-75
2022/05/01 02:38:04;;;;;;;19.10;14.13;;;7.10;99.90;;;;;;5043875;28;20037;-75
2022/05/01 02:40:31;;;;;;;18.50;13.82;;;7.10;99.90;;;;;;5068191;28;20045;-74
2022/05/01 02:42:58;;;;;;;17.13;14.45;;;7.20;99.90;;;;;;5055845;28;20044;-75
2022/05/01 02:45:27;;;;;;;19.77;14.43;;;7.10;99.90;;;;;;5055941;28;20048;-75
2022/05/01 02:47:54;;;;;;;17.38;14.25;;;7.10;99.90;;;;;;5053900;28;20074;-75
2022/05/01 02:50:22;;;;;;;16.42;14.43;;;7.10;99.90;;;;;;5066159;28;20487;-75
2022/05/01 02:52:51;;;;;;;15.82;14.13;;;7.10;99.90;;;;;;5048721;28;20568;-75
2022/05/01 02:55:20;;;;;;;17.27;13.98;;;7.10;99.90;;;;;;5055821;28;20076;-76
2022/05/01 02:57:46;;;;;;;16.60;14.30;;;7.10;99.90;;;;;;5072198;28;20207;-76
2022/05/01 03:00:17;;;;;;;18.30;15.88;;;7.00;99.90;;;;;;5070236;28;20025;-75
2022/05/01 03:02:48;;;;;;;16.50;14.50;;;7.00;99.90;;;;;;5054938;28;20044;-75
2022/05/01 03:05:14;;;;;;;20.25;15.38;;;7.00;99.90;;;;;;5055324;28;20032;-76
2022/05/01 03:07:40;;;;;;;19.67;15.70;;;6.90;99.90;;;;;;5053060;28;20071;-75
2022/05/01 03:10:07;;;;;;;18.27;14.43;;;7.00;99.90;;;;;;5071998;28;20345;-76
2022/05/01 03:12:36;;;;;;;19.25;14.88;;;7.00;99.90;;;;;;5071661;28;20041;-76
2022/05/01 03:15:02;;;;;;;18.25;14.93;;;6.90;99.90;;;;;;5053743;28;20119;-75
2022/05/01 03:23:02;;;;;;;16.35;14.55;;;6.80;99.90;;;;;;5068385;28;20514;-75
2022/05/01 03:25:28;;;;;;;18.65;14.40;;;6.80;99.90;;;;;;5049433;28;20131;-75
2022/05/01 03:27:54;;;;;;;19.58;15.40;;;6.80;99.90;;;;;;5064464;28;20068;-75
2022/05/01 03:30:21;;;;;;;19.02;14.93;;;6.80;99.90;;;;;;5054170;28;20056;-75
2022/05/01 03:32:50;;;;;;;17.63;15.65;;;6.70;99.90;;;;;;5054891;28;20127;-75
2022/05/01 03:35:21;;;;;;;17.92;15.05;;;6.70;99.90;;;;;;5054783;28;20047;-73
2022/05/01 03:37:47;;;;;;;20.10;14.80;;;6.70;99.90;;;;;;5068481;28;20729;-76
2022/05/01 03:40:14;;;;;;;19.83;16.00;;;6.70;99.90;;;;;;5054533;28;20052;-75
2022/05/01 03:42:40;;;;;;;20.02;16.25;;;6.70;99.90;;;;;;5054366;28;20083;-75
2022/05/01 03:45:06;;;;;;;17.60;15.70;;;6.70;99.90;;;;;;5054972;28;20072;-75
2022/05/01 03:47:34;;;;;;;20.70;16.00;;;6.60;99.90;;;;;;5047446;28;20045;-74
2022/05/01 03:50:00;;;;;;;18.67;15.70;;;6.60;99.90;;;;;;5050012;28;20040;-75
2022/05/01 03:52:26;;;;;;;19.60;16.25;;;6.60;99.90;;;;;;5049888;28;20435;-76
2022/05/01 03:54:52;;;;;;;20.08;16.27;;;6.60;99.90;;;;;;5053350;28;20036;-75
2022/05/01 03:57:17;;;;;;;21.67;16.60;;;6.60;99.90;;;;;;5053567;28;20037;-76
2022/05/01 03:59:43;;;;;;;21.10;16.80;;;6.60;99.90;;;;;;5051574;28;20041;-75
2022/05/01 04:02:08;;;;;;;19.00;16.92;;;6.50;99.90;;;;;;5050037;28;20041;-75
2022/05/01 04:04:35;;;;;;;22.45;17.38;;;6.50;99.90;;;;;;5067381;28;20045;-75
2022/05/01 04:07:01;;;;;;;20.05;17.10;;;6.50;99.90;;;;;;5066183;28;20492;-75
2022/05/01 04:09:28;;;;;;;20.00;16.70;;;6.50;99.90;;;;;;5049663;28;20040;-75
2022/05/01 04:11:59;;;;;;;20.17;17.42;;;6.50;99.90;;;;;;5071054;28;20081;-74
2022/05/01 04:14:24;;;;;;;22.05;18.17;;;6.50;99.90;;;;;;5053237;28;20067;-75
2022/05/01 04:16:50;;;;;;;21.00;17.92;;;6.50;99.90;;;;;;5052446;28;20488;-75
2022/05/01 04:19:16;;;;;;;23.10;18.52;;;6.40;99.90;;;;;;5053640;28;20365;-75
2022/05/01 04:21:41;;;;;;;23.08;18.20;;;6.40;99.90;;;;;;5070656;28;20044;-75
2022/05/01 04:24:07;;;;;;;24.25;18.48;;;6.40;99.90;;;;;;5053950;28;20585;-75
2022/05/01 04:26:36;;;;;;;25.23;18.73;;;6.40;99.90;;;;;;5063335;28;20462;-75
2022/05/01 04:31:45;;;;;;;23.08;18.70;;;6.50;99.90;;;;;;5070109;28;20037;-75
2022/05/01 04:34:11;;;;;;;24.25;18.30;;;6.50;99.90;;;;;;5053710;28;20043;-75
2022/05/01 04:36:39;;;;;;;21.83;19.17;;;6.50;99.90;;;;;;5052423;28;20063;-75
2022/05/01 04:39:04;;;;;;;22.40;18.55;;;6.50;99.90;;;;;;5053311;28;20293;-75
2022/05/01 04:41:30;;;;;;;21.65;17.50;;;6.50;99.90;;;;;;5064150;28;20049;-75
2022/05/01 04:43:56;;;;;;;26.30;19.08;;;6.50;99.90;;;;;;5046252;28;20058;-76
2022/05/01 04:46:21;;;;;;;27.02;18.73;;;6.60;99.90;;;;;;5053787;28;20044;-76
2022/05/01 04:48:47;;;;;;;22.17;18.48;;;6.60;99.90;;;;;;5048906;28;20044;-74
2022/05/01 04:51:13;;;;;;;20.92;17.63;;;6.60;99.90;;;;;;5063345;28;20119;-75
2022/05/01 04:53:38;;;;;;;24.23;18.30;;;6.60;99.90;;;;;;5070436;28;20132;-75
2022/05/01 04:58:51;;;;;;;23.23;19.02;;;6.70;99.90;;;;;;5060106;28;20053;-75
2022/05/01 05:01:17;;;;;;;23.33;19.33;;;6.70;99.90;;;;;;5051821;28;20044;-75
2022/05/01 05:03:43;;;;;;;26.27;18.75;;;6.70;99.90;;;;;;5045337;28;20136;-76
2022/05/01 05:06:08;;;;;;;23.38;18.52;;;6.80;99.90;;;;;;5069305;28;20119;-75
2022/05/01 05:11:21;;;;;;;24.33;18.85;;;6.90;99.90;;;;;;5070227;28;20036;-75
2022/05/01 05:13:46;;;;;;;22.02;18.15;;;6.90;99.90;;;;;;5053830;28;20479;-75
2022/05/01 05:16:18;;;;;;;24.40;18.63;;;6.90;99.90;;;;;;5053098;28;20041;-75
2022/05/01 05:18:43;;;;;;;21.90;18.55;;;6.90;99.90;;;;;;5036781;28;20048;-75
2022/05/01 05:21:09;;;;;;;21.70;17.23;;;6.90;99.90;;;;;;5050935;28;20044;-75
2022/05/01 05:23:35;;;;;;;21.90;18.38;;;6.90;99.90;;;;;;5052077;28;20040;-75
2022/05/01 05:26:01;;;;;;;23.00;18.08;;;6.90;99.90;;;;;;5069984;28;20075;-74
2022/05/01 05:28:26;;;;;;;21.33;18.60;;;7.00;99.90;;;;;;5050278;28;20474;-75
2022/05/01 05:30:52;;;;;;;26.00;22.15;;;7.10;99.90;;;;;;5053536;28;20125;-74
2022/05/01 05:33:19;;;;;;;24.65;22.05;;;7.10;99.90;;;;;;5052343;28;20059;-75
2022/05/01 05:35:45;;;;;;;24.38;19.83;;;7.10;99.90;;;;;;5052085;28;20111;-75
2022/05/01 05:38:11;;;;;;;21.20;18.38;;;7.10;99.90;;;;;;5044718;28;20525;-75
2022/05/01 05:40:38;;;;;;;22.33;19.33;;;7.20;99.90;;;;;;5052015;28;20080;-74
2022/05/01 05:43:03;;;;;;;22.77;19.13;;;7.20;99.90;;;;;;5069565;28;20090;-75
2022/05/01 05:45:32;;;;;;;21.92;18.38;;;7.30;99.90;;;;;;5054089;28;20044;-76
2022/05/01 05:47:58;;;;;;;22.75;18.63;;;7.30;99.90;;;;;;5038313;28;20037;-76
2022/05/01 05:50:24;;;;;;;24.90;19.60;;;7.40;99.90;;;;;;5049114;28;20032;-76
2022/05/01 05:52:50;;;;;;;24.77;20.05;;;7.50;99.90;;;;;;5053331;28;20491;-76
2022/05/01 05:55:16;;;;;;;21.65;18.38;;;7.50;99.90;;;;;;5046061;28;20040;-76
2022/05/01 05:57:41;;;;;;;22.73;19.63;;;7.70;99.90;;;;;;5041656;28;20093;-76
2022/05/01 06:00:07;;;;;;;24.33;19.65;;;7.90;99.90;;;;;;5050047;28;20174;-75
2022/05/01 06:02:35;;;;;;;23.15;20.10;;;8.10;99.90;;;;;;5041225;28;20515;-76
2022/05/01 06:05:00;;;;;;;20.80;18.40;;;8.30;99.90;;;;;;5053380;28;20060;-76
2022/05/01 06:07:26;;;;;;;22.98;19.05;;;8.40;99.90;;;;;;5039034;28;20495;-76
2022/05/01 06:09:52;;;;;;;22.58;18.88;;;8.60;99.90;;;;;;5053657;28;20040;-76
2022/05/01 06:12:17;;;;;;;20.95;18.00;;;8.70;99.90;;;;;;5052512;28;20043;-75
2022/05/01 06:14:44;;;;;;;18.67;16.73;;;8.90;99.90;;;;;;5036362;28;20041;-76
2022/05/01 06:17:10;;;;;;;19.52;16.85;;;9.20;99.90;;;;;;5039836;28;20439;-76
2022/05/01 06:19:36;;;;;;;19.77;17.55;;;9.80;99.90;;;;;;5052860;28;20055;-76
2022/05/01 06:22:02;;;;;;;19.33;17.10;;;10.40;99.90;;;;;;5055969;28;20040;-75
2022/05/01 06:24:28;;;;;;;19.02;16.98;;;10.90;99.90;;;;;;5051488;28;20036;-76
2022/05/01 06:26:53;;;;;;;19.73;16.25;;;11.30;99.90;;;;;;5053200;28;20043;-75
2022/05/01 06:29:19;;;;;;;19.88;17.85;;;11.70;99.90;;;;;;5055668;28;20043;-76
2022/05/01 06:31:46;;;;;;;20.55;17.48;;;11.80;99.90;;;;;;5049087;28;20098;-76
2022/05/01 06:34:12;;;;;;;18.10;16.10;;;11.70;99.90;;;;;;5056057;28;20032;-76
2022/05/01 06:36:37;;;;;;;20.83;18.00;;;11.40;99.90;;;;;;5053903;28;20079;-76
2022/05/01 06:39:04;;;;;;;18.60;16.58;;;11.00;99.90;;;;;;5051930;28;20440;-76
2022/05/01 06:41:29;;;;;;;19.70;16.70;;;10.90;99.90;;;;;;5036908;28;20047;-76
2022/05/01 06:43:55;;;;;;;22.50;19.55;;;10.80;99.90;;;;;;5052892;28;20406;-75
2022/05/01 06:46:21;;;;;;;18.15;16.23;;;10.70;99.90;;;;;;5045006;28;20044;-78
2022/05/01 06:48:47;;;;;;;19.95;15.57;;;10.70;99.90;;;;;;5040119;28;20040;-76
2022/05/01 06:51:13;;;;;;;20.77;18.67;;;10.60;99.90;;;;;;5050411;28;20032;-77
2022/05/01 06:53:39;;;;;;;18.77;15.38;;;10.40;99.90;;;;;;5047346;28;20036;-75
2022/05/01 06:56:05;;;;;;;18.15;16.25;;;10.40;99.90;;;;;;5077974;28;20043;-75
2022/05/01 06:58:31;;;;;;;18.42;16.50;;;10.40;99.90;;;;;;5049729;28;20462;-76
2022/05/01 07:01:00;;;;;;;17.13;15.23;;;10.30;99.90;;;;;;5043744;28;20114;-76
2022/05/01 07:03:26;;;;;;;17.60;15.55;;;10.30;99.90;;;;;;5053254;28;20091;-77
2022/05/01 07:05:52;;;;;;;17.80;16.00;;;10.40;99.90;;;;;;5084406;28;20135;-77
2022/05/01 07:08:18;;;;;;;17.27;14.60;;;10.40;99.90;;;;;;5047913;28;20402;-74
2022/05/01 07:10:46;;;;;;;18.23;14.52;;;10.40;99.90;;;;;;5045643;28;20033;-74
2022/05/01 07:13:12;;;;;;;15.82;14.20;;;10.50;99.90;;;;;;5048738;28;20048;-74
2022/05/01 07:15:38;;;;;;;13.50;11.85;;;10.50;99.90;;;;;;5053311;28;20048;-74
2022/05/01 07:18:04;;;;;;;14.15;12.60;;;10.60;99.90;;;;;;5066162;28;20064;-74
2022/05/01 07:20:35;;;;;;;15.68;12.65;;;10.70;99.90;;;;;;5047762;28;20482;-75
2022/05/01 07:23:10;;;;;;;15.98;13.77;;;10.80;99.90;;;;;;5046253;28;20040;-77
2022/05/01 07:25:39;;;;;;;16.77;13.10;;;10.90;99.90;;;;;;5053125;28;20127;-76
2022/05/01 07:28:04;;;;;;;14.80;12.90;;;11.00;99.90;;;;;;5053255;28;20581;-76
2022/05/01 07:30:30;;;;;;;13.73;12.32;;;11.10;99.90;;;;;;5042056;28;20052;-75
2022/05/01 07:32:56;;;;;;;14.02;11.65;;;11.10;99.90;;;;;;5052229;28;20040;-77
2022/05/01 07:35:30;;;;;;;16.90;12.40;;;11.20;99.90;;;;;;5053967;28;20380;-77
2022/05/01 07:37:56;;;;;;;14.05;10.93;;;11.40;99.90;;;;;;5051755;28;20036;-77
2022/05/01 07:40:24;;;;;;;13.07;10.95;;;11.60;99.90;;;;;;5051548;28;20043;-78
2022/05/01 07:42:51;;;;;;;12.52;10.65;;;11.70;99.90;;;;;;5054000;28;20633;-78
2022/05/01 07:45:20;;;;;;;12.73;10.98;;;11.90;99.90;;;;;;5048911;28;20103;-78
2022/05/01 07:47:45;;;;;;;11.10;9.75;;;12.00;99.90;;;;;;5049911;28;20037;-78
2022/05/01 07:50:14;;;;;;;10.52;9.10;;;12.20;99.90;;;;;;5068289;28;20035;-78
2022/05/01 07:52:43;;;;;;;14.43;9.80;;;12.30;99.90;;;;;;5054363;28;20050;-78
2022/05/01 07:55:12;;;;;;;13.05;11.77;;;12.40;99.90;;;;;;5050377;28;20029;-78
2022/05/01 07:57:41;;;;;;;11.45;10.25;;;12.50;99.90;;;;;;5059777;28;20122;-78
2022/05/01 08:00:15;;;;;;;12.30;10.43;;;12.70;99.90;;;;;;5053322;28;20046;-78
2022/05/01 08:05:39;;;;;;;12.88;11.00;;;12.70;99.90;;;;;;5069665;28;20399;-77
2022/05/01 08:08:12;;;;;;;12.57;10.90;;;12.60;99.90;;;;;;5050157;28;20033;-77
2022/05/01 08:10:46;;;;;;;11.45;10.25;;;12.70;99.90;;;;;;5036271;28;20499;-77
2022/05/01 08:13:12;;;;;;;10.27;9.25;;;12.60;99.90;;;;;;5049296;28;20042;-78
2022/05/01 08:15:58;;;;;;;11.00;9.30;;;12.60;99.90;;;;;;5059840;28;20037;-78
2022/05/01 08:21:17;;;;;;;11.50;10.27;;;12.40;99.90;;;;;;5066022;28;20040;-78
2022/05/01 08:23:45;;;;;;;16.15;11.75;;;12.20;99.90;;;;;;5052649;28;20071;-77
2022/05/01 08:26:17;;;;;;;12.23;10.70;;;12.10;99.90;;;;;;5063886;28;20533;-77
2022/05/01 08:28:51;;;;;;;14.23;11.15;;;11.90;99.90;;;;;;5053430;28;20037;-78
2022/05/01 08:31:20;;;;;;;14.43;11.63;;;11.80;99.90;;;;;;5053620;28;20029;-77
2022/05/01 08:33:55;;;;;;;13.25;11.90;;;11.60;99.90;;;;;;5050777;28;20115;-77
2022/05/01 08:36:21;;;;;;;12.63;10.95;;;11.50;99.90;;;;;;5048362;28;20499;-77
2022/05/01 08:38:47;;;;;;;13.05;10.65;;;11.50;99.90;;;;;;5052726;28;20049;-77
2022/05/01 08:41:15;;;;;;;11.70;10.38;;;11.40;99.90;;;;;;5048342;28;20115;-77
2022/05/01 08:43:41;;;;;;;15.20;11.15;;;11.40;99.90;;;;;;5067878;28;20082;-78
2022/05/01 08:46:34;;;;;;;13.35;11.32;;;11.50;99.90;;;;;;5049318;28;20079;-77
2022/05/01 08:49:06;;;;;;;13.95;11.07;;;11.50;99.90;;;;;;5043260;28;20040;-78
2022/05/01 08:51:38;;;;;;;12.73;10.55;;;11.50;99.90;;;;;;5048354;28;20041;-77
2022/05/01 08:54:07;;;;;;;13.63;10.95;;;11.70;99.90;;;;;;5033556;28;20392;-78
2022/05/01 08:56:34;;;;;;;14.00;11.02;;;11.90;99.90;;;;;;5048543;28;20032;-78
2022/05/01 08:59:12;;;;;;;12.95;10.77;;;12.20;99.90;;;;;;5049543;28;20411;-78
2022/05/01 09:01:40;;;;;;;11.68;9.73;;;12.60;99.90;;;;;;5037871;28;20102;-78
2022/05/01 09:04:12;;;;;;;13.65;10.73;;;13.00;99.90;;;;;;5069312;28;20037;-78
2022/05/01 09:06:41;;;;;;;11.40;9.38;;;13.40;99.90;;;;;;5050511;28;20046;-78
2022/05/01 09:09:16;;;;;;;11.25;9.57;;;13.70;99.90;;;;;;5052247;28;20116;-78
2022/05/01 09:14:29;;;;;;;11.52;9.32;;;14.70;99.90;;;;;;5065699;28;20068;-78
2022/05/01 09:17:13;;;;;;;9.68;8.68;;;15.30;99.90;;;;;;5066732;28;20045;-78
2022/05/01 09:19:39;;;;;;;10.10;8.93;;;15.70;99.90;;;;;;5045455;28;20116;-79
2022/05/01 09:22:05;;;;;;;9.57;8.68;;;16.10;99.90;;;;;;5059984;28;20028;-78
2022/05/01 09:24:31;;;;;;;10.30;8.98;;;16.70;99.90;;;;;;5065922;28;20098;-79
2022/05/01 09:27:00;;;;;;;9.05;7.82;;;17.40;95.80;;;;;;5044099;28;20561;-79
2022/05/01 09:29:32;;;;;;;9.82;8.85;;;17.90;96.00;;;;;;5052390;28;20496;-80
2022/05/01 09:32:03;;;;;;;8.07;7.32;;;18.00;89.50;;;;;;5051350;28;20395;-78
2022/05/01 09:34:36;;;;;;;9.00;8.07;;;17.80;89.50;;;;;;5043837;28;20037;-79
2022/05/01 09:37:18;;;;;;;9.13;8.23;;;17.60;85.80;;;;;;5054688;28;20044;-78
2022/05/01 09:39:48;;;;;;;9.63;8.70;;;17.50;91.90;;;;;;5055404;28;20129;-78
2022/05/01 09:42:18;;;;;;;9.68;7.85;;;17.70;87.00;;;;;;5049919;28;20051;-78
2022/05/01 09:45:07;;;;;;;9.63;8.70;;;17.80;76.30;;;;;;5046946;28;20049;-77
2022/05/01 09:47:45;;;;;;;8.95;8.05;;;18.00;90.40;;;;;;5056193;28;20036;-77
2022/05/01 09:50:43;;;;;;;7.60;6.90;;;18.60;90.70;;;;;;5048802;28;20064;-77
2022/05/01 09:53:13;;;;;;;7.65;6.95;;;19.00;75.10;;;;;;5049025;28;20039;-77
2022/05/01 09:55:42;;;;;;;8.18;6.60;;;19.40;84.90;;;;;;5072575;28;20340;-77
2022/05/01 09:58:13;;;;;;;7.95;7.25;;;20.00;79.00;;;;;;5061534;28;20036;-77
2022/05/01 10:00:50;;;;;;;8.07;6.63;;;20.60;70.90;;;;;;5068887;28;20445;-77
2022/05/01 10:03:24;;;;;;;9.10;7.13;;;21.00;70.40;;;;;;5071880;28;20068;-77
2022/05/01 10:05:53;;;;;;;7.75;7.03;;;21.30;64.90;;;;;;5054903;28;20071;-77
2022/05/01 10:08:23;;;;;;;7.53;6.82;;;21.60;65.10;;;;;;5048835;28;20039;-77
2022/05/01 10:11:06;;;;;;;;;;;21.60;60.20;;;;;;5055462;28;20041;-77
2022/05/01 10:13:37;;;;;;;7.95;7.03;;;21.20;54.40;;;;;;5049675;28;19916;-78
2022/05/01 10:16:07;;;;;;;9.25;7.10;;;20.90;63.40;;;;;;5056162;28;20040;-78
2022/05/01 10:18:40;;;;;;;9.13;6.78;;;21.10;61.00;;;;;;5062923;28;20083;-79
2022/05/01 10:21:06;;;;;;;6.70;6.10;;;21.30;58.10;;;;;;5054747;28;20093;-78
2022/05/01 10:23:34;;;;;;;6.72;5.63;;;21.40;55.20;;;;;;5067296;28;20127;-78
2022/05/01 10:26:17;;;;;;;7.60;6.10;;;21.70;56.50;;;;;;5035804;28;20518;-78
2022/05/01 10:28:54;;;;;;;5.70;5.20;;;22.20;54.20;;;;;;5049034;28;20132;-77
2022/05/01 10:35:15;;;;;;;6.75;5.80;;;22.60;46.10;;;;;;5064369;28;20073;-78
2022/05/01 10:38:17;;;;;;;5.22;4.70;;;22.10;48.80;;;;;;5069061;28;20037;-78
2022/05/01 10:40:51;;;;;;;5.32;4.82;;;21.40;49.10;;;;;;5053895;28;20090;-78
2022/05/01 10:43:27;;;;;;;4.93;4.43;;;20.60;49.60;;;;;;5055131;28;20051;-77
2022/05/01 10:46:01;;;;;;;5.90;4.85;;;19.80;50.90;;;;;;5053928;28;20466;-78
2022/05/01 10:48:41;;;;;;;5.90;4.68;;;19.30;54.80;;;;;;5077436;28;20048;-78
2022/05/01 10:51:27;;;;;;;5.70;4.82;;;19.10;54.10;;;;;;5048745;28;20117;-78
2022/05/01 10:54:13;;;;;;;4.97;4.57;;;19.20;55.90;;;;;;5050821;28;20041;-77
2022/05/01 10:56:45;;;;;;;5.40;4.90;;;19.10;53.70;;;;;;5054679;28;20040;-79
2022/05/01 10:59:31;;;;;;;5.97;5.22;;;18.80;55.70;;;;;;5040799;28;20044;-77
2022/05/01 11:02:05;;;;;;;5.90;5.05;;;18.70;60.20;;;;;;5052624;28;20048;-77
2022/05/01 11:04:41;;;;;;;5.82;5.22;;;18.60;64.00;;;;;;5066270;28;20044;-76
2022/05/01 11:07:16;;;;;;;6.97;6.30;;;18.60;64.60;;;;;;5069458;28;20459;-77
2022/05/01 11:09:47;;;;;;;6.68;5.97;;;18.60;64.40;;;;;;5053852;28;20082;-78
2022/05/01 11:12:19;;;;;;;6.35;5.65;;;18.80;59.30;;;;;;5071954;28;20040;-79
2022/05/01 11:14:57;;;;;;;6.63;6.00;;;18.80;57.90;;;;;;5053502;28;20044;-78
2022/05/01 11:17:42;;;;;;;6.80;5.82;;;18.50;54.80;;;;;;5047262;28;20527;-79
2022/05/01 11:20:18;;;;;;;6.57;5.88;;;18.10;56.70;;;;;;5053101;28;20090;-79
2022/05/01 11:22:45;;;;;;;6.60;5.90;;;17.80;61.10;;;;;;5051419;28;20066;-79
2022/05/01 11:25:17;;;;;;;6.25;5.65;;;18.00;60.40;;;;;;5046363;28;20439;-78
2022/05/01 11:27:55;;;;;;;8.57;5.97;;;18.00;59.20;;;;;;5054623;28;20560;-79
2022/05/01 11:30:27;;;;;;;8.10;6.25;;;18.20;61.60;;;;;;5055116;28;20040;-79
2022/05/01 11:33:00;;;;;;;6.38;5.78;;;18.30;55.50;;;;;;5053375;28;20119;-79
2022/05/01 11:36:01;;;;;;;6.82;5.72;;;18.00;54.80;;;;;;5055093;28;20032;-78
2022/05/01 11:38:38;;;;;;;6.40;5.72;;;17.40;56.80;;;;;;5044696;28;20204;-78
2022/05/01 11:41:07;;;;;;;6.80;5.75;;;16.90;59.80;;;;;;5080402;28;20036;-78
2022/05/01 11:43:34;;;;;;;5.78;5.15;;;16.60;60.00;;;;;;5052435;28;20041;-79
2022/05/01 11:46:06;;;;;;;6.75;5.78;;;16.30;60.50;;;;;;5054769;28;20037;-78
2022/05/01 11:48:41;;;;;;;6.28;5.63;;;16.10;59.50;;;;;;5046912;28;20041;-78
2022/05/01 11:51:09;;;;;;;8.60;5.18;;;15.90;58.00;;;;;;5054692;28;20047;-79
2022/05/01 11:53:39;;;;;;;7.38;5.03;;;15.60;63.30;;;;;;5045469;28;20032;-78
2022/05/01 12:04:37;;;;;;;7.00;5.40;;;15.30;69.90;;;;;;5063416;28;20044;-78
2022/05/01 12:07:15;;;;;;;6.05;5.45;;;15.50;63.10;;;;;;5064164;28;20068;-78
2022/05/01 12:09:51;;;;;;;5.63;5.13;;;15.60;64.30;;;;;;5054098;28;20037;-79
2022/05/01 12:12:26;;;;;;;5.88;5.25;;;15.60;65.50;;;;;;5053280;28;20123;-80
2022/05/01 12:15:02;;;;;;;5.35;4.85;;;15.90;70.20;;;;;;5069423;28;20044;-79
2022/05/01 12:17:32;;;;;;;6.05;5.20;;;16.20;65.50;;;;;;5053734;28;20051;-79
2022/05/01 12:20:00;;;;;;;7.30;5.55;;;16.90;62.20;;;;;;5069759;28;20069;-79
2022/05/01 12:22:39;;;;;;;8.77;5.95;;;17.50;57.40;;;;;;5052794;28;20542;-79
2022/05/01 12:25:10;;;;;;;6.13;5.50;;;17.90;66.10;;;;;;5045015;28;20166;-79
2022/05/01 12:27:48;;;;;;;5.82;4.78;;;18.80;59.40;;;;;;5067244;28;20056;-79
2022/05/01 12:30:28;;;;;;;5.93;5.35;;;19.60;56.20;;;;;;5049528;28;20029;-79
2022/05/01 12:33:01;;;;;;;6.88;5.28;;;20.60;55.10;;;;;;5019015;28;20095;-79
2022/05/01 12:35:27;;;;;;;5.70;5.10;;;20.90;51.80;;;;;;5063651;28;20044;-79
2022/05/01 12:37:59;;;;;;;5.15;4.65;;;20.70;51.70;;;;;;5052080;28;20064;-79
2022/05/01 12:46:39;;;;;;;7.95;5.35;;;19.90;54.90;;;;;;5054061;28;20483;-78
2022/05/01 12:49:08;;;;;;;5.88;4.63;;;19.70;55.00;;;;;;5038102;28;20036;-79
2022/05/01 12:51:41;;;;;;;6.00;5.32;;;19.40;55.90;;;;;;5049289;28;20044;-79
2022/05/01 12:54:17;;;;;;;6.45;4.78;;;19.20;56.20;;;;;;5052636;28;20047;-78
2022/05/01 12:56:55;;;;;;;6.60;5.10;;;18.90;57.90;;;;;;5052932;28;20041;-79
2022/05/01 12:59:27;;;;;;;5.95;5.35;;;18.50;56.80;;;;;;5053230;28;20120;-79
2022/05/01 13:01:59;;;;;;;7.68;5.40;;;18.20;55.70;;;;;;5064594;28;20033;-79
2022/05/01 13:04:32;;;;;;;5.80;5.20;;;17.90;57.40;;;;;;5051066;28;20478;-78
2022/05/01 13:07:01;;;;;;;6.38;4.95;;;17.50;60.20;;;;;;5039391;28;20044;-77
2022/05/01 13:09:26;;;;;;;7.43;5.35;;;17.20;64.60;;;;;;5059265;28;20568;-79
2022/05/01 13:12:00;;;;;;;5.55;5.05;;;17.20;65.30;;;;;;5053363;28;20045;-78
2022/05/01 13:14:33;;;;;;;6.25;5.28;;;17.00;65.90;;;;;;5053698;28;20047;-78
2022/05/01 13:17:10;;;;;;;6.00;4.53;;;16.90;64.90;;;;;;5052138;28;20044;-79
2022/05/01 13:19:38;;;;;;;7.28;5.30;;;16.80;68.50;;;;;;5056391;28;20076;-78
2022/05/01 13:22:06;;;;;;;5.82;5.00;;;16.70;68.90;;;;;;5056200;28;20048;-76
2022/05/01 13:24:33;;;;;;;8.93;4.97;;;16.50;71.20;;;;;;5055385;28;20032;-77
2022/05/01 13:27:04;;;;;;;5.65;5.05;;;16.40;69.90;;;;;;5056178;28;20079;-76
2022/05/01 13:29:31;;;;;;;6.18;5.05;;;16.30;72.80;;;;;;5063408;28;20127;-77
2022/05/01 13:31:59;;;;;;;5.70;5.10;;;16.40;72.30;;;;;;5054621;28;20036;-77
2022/05/01 13:34:25;;;;;;;6.72;4.93;;;16.30;67.70;;;;;;5051127;28;20041;-77
2022/05/01 13:36:51;;;;;;;5.75;4.63;;;16.30;66.90;;;;;;5071968;28;20082;-77
2022/05/01 13:39:17;;;;;;;7.80;4.57;;;16.20;65.60;;;;;;5073553;28;20032;-77